PWSweather.com
Personal Weather Stations
Station Observations
INORDPAS37
Bondues, BonduesFR 59910

BonduesBonduesFR 59910

Lat: 50.7, Lon: 3.09

Elevation: 102

Station Type: Netatmo

http://bondues.meteoamikuze.com

High Low Average
Temperature 75.2°F24.0°C 46.2°F7.9°C 61.6°F16.4°C
Dew Point 52.3°F11.3°C 33.8°F1.0°C 43.8°F6.6°C
Winds 1.8 mph 2.9 kmh Calm Calm 1.0 mph SE1.6 kmh SE
Wind Gusts 7.4 mph11.9 kmh 0.7 mph1.1 kmh 3.0 mph4.8 kmh
Humidity 68% 42% 56%
Pressure 30.36 in1028.1 mb 30.29 in1025.7 mb -
Precipitation 0.00 in0.0 mm - -
Hour Temp Dew Point Humidity Winds Wind Gusts Pressure Precip Precip Rate Daily Precip Total
12:01 AM 54.7°F12.6°C 39.6°F4.2°C 61% 0.7 mph SE1.1 kmh SE 1.8 mph2.9 kmh 30.29 in1025.7 mb 0.00 in0.0 mm 0.00 in0.0 mm 0.00 in0.0 mm
12:21 AM 54.1°F12.3°C 39.0°F3.9°C 61% 0.7 mph E1.1 kmh E 1.8 mph2.9 kmh 30.29 in1025.7 mb 0.00 in0.0 mm 0.00 in0.0 mm 0.00 in0.0 mm
12:42 AM 53.8°F12.1°C 39.0°F3.9°C 62% 0.7 mph SSE1.1 kmh SSE 1.3 mph2.1 kmh 30.29 in1025.7 mb 0.00 in0.0 mm 0.00 in0.0 mm 0.00 in0.0 mm
01:01 AM 53.2°F11.8°C 38.5°F3.6°C 62% 0.7 mph SE1.1 kmh SE 1.3 mph2.1 kmh 30.29 in1025.7 mb 0.00 in0.0 mm 0.00 in0.0 mm 0.00 in0.0 mm
01:22 AM 52.5°F11.4°C 38.3°F3.5°C 63% 0.7 mph E1.1 kmh E 1.3 mph2.1 kmh 30.29 in1025.7 mb 0.00 in0.0 mm 0.00 in0.0 mm 0.00 in0.0 mm
01:41 AM 52.0°F11.1°C 37.8°F3.2°C 63% 0.7 mph E1.1 kmh E 1.3 mph2.1 kmh 30.30 in1026.1 mb 0.00 in0.0 mm 0.00 in0.0 mm 0.00 in0.0 mm
02:00 AM 51.4°F10.8°C 37.6°F3.1°C 64% 0.7 mph NE1.1 kmh NE 1.3 mph2.1 kmh 30.30 in1026.1 mb 0.00 in0.0 mm 0.00 in0.0 mm 0.00 in0.0 mm
02:21 AM 51.1°F10.6°C 37.2°F2.9°C 64% 0.7 mph E1.1 kmh E 1.3 mph2.1 kmh 30.30 in1026.1 mb 0.00 in0.0 mm 0.00 in0.0 mm 0.00 in0.0 mm
02:40 AM 50.7°F10.4°C 37.4°F3.0°C 65% 0.7 mph E1.1 kmh E 1.8 mph2.9 kmh 30.29 in1025.7 mb 0.00 in0.0 mm 0.00 in0.0 mm 0.00 in0.0 mm
03:01 AM 50.4°F10.2°C 37.0°F2.8°C 65% 0.7 mph E1.1 kmh E 1.3 mph2.1 kmh 30.30 in1026.1 mb 0.00 in0.0 mm 0.00 in0.0 mm 0.00 in0.0 mm
03:20 AM 50.0°F10.0°C 36.7°F2.6°C 65% 0.7 mph SE1.1 kmh SE 1.3 mph2.1 kmh 30.29 in1025.7 mb 0.00 in0.0 mm 0.00 in0.0 mm 0.00 in0.0 mm
03:41 AM 49.8°F9.9°C 36.5°F2.5°C 65% 0.7 mph E1.1 kmh E 1.3 mph2.1 kmh 30.30 in1026.1 mb 0.00 in0.0 mm 0.00 in0.0 mm 0.00 in0.0 mm
04:01 AM 49.5°F9.7°C 36.1°F2.3°C 65% Calm Calm 1.3 mph2.1 kmh 30.29 in1025.7 mb 0.00 in0.0 mm 0.00 in0.0 mm 0.00 in0.0 mm
04:21 AM 48.9°F9.4°C 35.6°F2.0°C 65% 0.7 mph S1.1 kmh S 1.3 mph2.1 kmh 30.30 in1026.1 mb 0.00 in0.0 mm 0.00 in0.0 mm 0.00 in0.0 mm
04:41 AM 48.4°F9.1°C 35.4°F1.9°C 66% 0.7 mph SSE1.1 kmh SSE 1.3 mph2.1 kmh 30.30 in1026.1 mb 0.00 in0.0 mm 0.00 in0.0 mm 0.00 in0.0 mm
05:01 AM 48.0°F8.9°C 35.1°F1.7°C 66% 0.7 mph SSE1.1 kmh SSE 1.3 mph2.1 kmh 30.30 in1026.1 mb 0.00 in0.0 mm 0.00 in0.0 mm 0.00 in0.0 mm
05:21 AM 47.5°F8.6°C 34.7°F1.5°C 66% 0.7 mph S1.1 kmh S 1.8 mph2.9 kmh 30.30 in1026.1 mb 0.00 in0.0 mm 0.00 in0.0 mm 0.00 in0.0 mm
05:41 AM 47.1°F8.4°C 34.3°F1.3°C 66% 0.7 mph S1.1 kmh S 1.8 mph2.9 kmh 30.31 in1026.4 mb 0.00 in0.0 mm 0.00 in0.0 mm 0.00 in0.0 mm
06:01 AM 46.8°F8.2°C 34.0°F1.1°C 66% 0.7 mph S1.1 kmh S 1.3 mph2.1 kmh 30.32 in1026.8 mb 0.00 in0.0 mm 0.00 in0.0 mm 0.00 in0.0 mm
06:22 AM 46.4°F8.0°C 34.0°F1.1°C 67% 0.7 mph S1.1 kmh S 1.3 mph2.1 kmh 30.32 in1026.8 mb 0.00 in0.0 mm 0.00 in0.0 mm 0.00 in0.0 mm
06:41 AM 46.2°F7.9°C 33.8°F1.0°C 67% 0.7 mph S1.1 kmh S 1.3 mph2.1 kmh 30.32 in1026.8 mb 0.00 in0.0 mm 0.00 in0.0 mm 0.00 in0.0 mm
07:02 AM 46.8°F8.2°C 34.3°F1.3°C 67% 0.7 mph SSW1.1 kmh SSW 1.3 mph2.1 kmh 30.33 in1027.1 mb 0.00 in0.0 mm 0.00 in0.0 mm 0.00 in0.0 mm
07:21 AM 49.3°F9.6°C 36.7°F2.6°C 67% Calm Calm 1.3 mph2.1 kmh 30.33 in1027.1 mb 0.00 in0.0 mm 0.00 in0.0 mm 0.00 in0.0 mm
07:42 AM 52.3°F11.3°C 39.6°F4.2°C 67% Calm Calm 0.7 mph1.1 kmh 30.34 in1027.4 mb 0.00 in0.0 mm 0.00 in0.0 mm 0.00 in0.0 mm
08:02 AM 54.5°F12.5°C 42.1°F5.6°C 68% Calm Calm 0.7 mph1.1 kmh 30.34 in1027.4 mb 0.00 in0.0 mm 0.00 in0.0 mm 0.00 in0.0 mm
08:22 AM 56.7°F13.7°C 44.2°F6.8°C 68% 0.7 mph SE1.1 kmh SE 1.3 mph2.1 kmh 30.35 in1027.8 mb 0.00 in0.0 mm 0.00 in0.0 mm 0.00 in0.0 mm
08:43 AM 59.9°F15.5°C 46.9°F8.3°C 67% 0.7 mph SE1.1 kmh SE 2.5 mph4.0 kmh 30.34 in1027.4 mb 0.00 in0.0 mm 0.00 in0.0 mm 0.00 in0.0 mm
09:02 AM 62.4°F16.9°C 48.9°F9.4°C 66% 1.3 mph SSE2.1 kmh SSE 2.5 mph4.0 kmh 30.35 in1027.8 mb 0.00 in0.0 mm 0.00 in0.0 mm 0.00 in0.0 mm
09:23 AM 64.4°F18.0°C 50.4°F10.2°C 65% 0.7 mph SSW1.1 kmh SSW 2.5 mph4.0 kmh 30.35 in1027.8 mb 0.00 in0.0 mm 0.00 in0.0 mm 0.00 in0.0 mm
09:42 AM 65.5°F18.6°C 50.5°F10.3°C 63% 0.7 mph SE1.1 kmh SE 2.5 mph4.0 kmh 30.36 in1028.1 mb 0.00 in0.0 mm 0.00 in0.0 mm 0.00 in0.0 mm
10:03 AM 66.9°F19.4°C 51.1°F10.6°C 61% 0.7 mph SE1.1 kmh SE 1.8 mph2.9 kmh 30.36 in1028.1 mb 0.00 in0.0 mm 0.00 in0.0 mm 0.00 in0.0 mm
10:23 AM 68.4°F20.2°C 51.6°F10.9°C 59% 0.7 mph W1.1 kmh W 1.8 mph2.9 kmh 30.36 in1028.1 mb 0.00 in0.0 mm 0.00 in0.0 mm 0.00 in0.0 mm
10:43 AM 69.3°F20.7°C 52.0°F11.1°C 58% 0.7 mph NNW1.1 kmh NNW 1.8 mph2.9 kmh 30.36 in1028.1 mb 0.00 in0.0 mm 0.00 in0.0 mm 0.00 in0.0 mm
11:04 AM 70.5°F21.4°C 52.3°F11.3°C 56% 1.3 mph WNW2.1 kmh WNW 2.5 mph4.0 kmh 30.36 in1028.1 mb 0.00 in0.0 mm 0.00 in0.0 mm 0.00 in0.0 mm
11:24 AM 70.9°F21.6°C 51.8°F11.0°C 54% 1.3 mph NNW2.1 kmh NNW 3.1 mph5.0 kmh 30.35 in1027.8 mb 0.00 in0.0 mm 0.00 in0.0 mm 0.00 in0.0 mm
11:44 AM 71.4°F21.9°C 52.0°F11.1°C 53% 0.7 mph N1.1 kmh N 2.5 mph4.0 kmh 30.35 in1027.8 mb 0.00 in0.0 mm 0.00 in0.0 mm 0.00 in0.0 mm
12:04 PM 71.4°F21.9°C 51.4°F10.8°C 52% 1.3 mph N2.1 kmh N 3.1 mph5.0 kmh 30.35 in1027.8 mb 0.00 in0.0 mm 0.00 in0.0 mm 0.00 in0.0 mm
12:24 PM 71.6°F22.0°C 50.9°F10.5°C 50% 1.3 mph NNW2.1 kmh NNW 3.1 mph5.0 kmh 30.34 in1027.4 mb 0.00 in0.0 mm 0.00 in0.0 mm 0.00 in0.0 mm
12:44 PM 72.0°F22.2°C 50.7°F10.4°C 49% 1.3 mph E2.1 kmh E 3.8 mph6.1 kmh 30.34 in1027.4 mb 0.00 in0.0 mm 0.00 in0.0 mm 0.00 in0.0 mm
01:05 PM 72.3°F22.4°C 50.5°F10.3°C 48% 1.8 mph NW2.9 kmh NW 4.3 mph6.9 kmh 30.34 in1027.4 mb 0.00 in0.0 mm 0.00 in0.0 mm 0.00 in0.0 mm
01:24 PM 73.6°F23.1°C 51.4°F10.8°C 47% 1.3 mph N2.1 kmh N 7.4 mph11.9 kmh 30.34 in1027.4 mb 0.00 in0.0 mm 0.00 in0.0 mm 0.00 in0.0 mm
01:45 PM 73.8°F23.2°C 51.1°F10.6°C 46% 1.8 mph E2.9 kmh E 4.3 mph6.9 kmh 30.34 in1027.4 mb 0.00 in0.0 mm 0.00 in0.0 mm 0.00 in0.0 mm
02:05 PM 74.1°F23.4°C 51.4°F10.8°C 46% 0.7 mph N1.1 kmh N 1.8 mph2.9 kmh 30.34 in1027.4 mb 0.00 in0.0 mm 0.00 in0.0 mm 0.00 in0.0 mm
02:25 PM 74.5°F23.6°C 50.9°F10.5°C 44% 1.8 mph NW2.9 kmh NW 7.4 mph11.9 kmh 30.33 in1027.1 mb 0.00 in0.0 mm 0.00 in0.0 mm 0.00 in0.0 mm
02:46 PM 74.7°F23.7°C 51.1°F10.6°C 44% 1.8 mph NE2.9 kmh NE 6.9 mph11.1 kmh 30.33 in1027.1 mb 0.00 in0.0 mm 0.00 in0.0 mm 0.00 in0.0 mm
03:05 PM 75.0°F23.9°C 50.9°F10.5°C 43% 1.3 mph NW2.1 kmh NW 3.8 mph6.1 kmh 30.32 in1026.8 mb 0.00 in0.0 mm 0.00 in0.0 mm 0.00 in0.0 mm
03:26 PM 75.2°F24.0°C 51.1°F10.6°C 43% 1.3 mph NW2.1 kmh NW 3.1 mph5.0 kmh 30.32 in1026.8 mb 0.00 in0.0 mm 0.00 in0.0 mm 0.00 in0.0 mm
03:46 PM 74.8°F23.8°C 50.4°F10.2°C 42% 1.3 mph ENE2.1 kmh ENE 4.3 mph6.9 kmh 30.32 in1026.8 mb 0.00 in0.0 mm 0.00 in0.0 mm 0.00 in0.0 mm
04:06 PM 74.8°F23.8°C 50.4°F10.2°C 42% 1.3 mph NE2.1 kmh NE 4.3 mph6.9 kmh 30.32 in1026.8 mb 0.00 in0.0 mm 0.00 in0.0 mm 0.00 in0.0 mm
04:26 PM 74.5°F23.6°C 50.0°F10.0°C 42% 1.8 mph NW2.9 kmh NW 3.8 mph6.1 kmh 30.31 in1026.4 mb 0.00 in0.0 mm 0.00 in0.0 mm 0.00 in0.0 mm
04:47 PM 73.0°F22.8°C 49.1°F9.5°C 43% 1.3 mph N2.1 kmh N 2.5 mph4.0 kmh 30.32 in1026.8 mb 0.00 in0.0 mm 0.00 in0.0 mm 0.00 in0.0 mm
05:07 PM 71.6°F22.0°C 48.2°F9.0°C 44% 1.3 mph NE2.1 kmh NE 4.3 mph6.9 kmh 30.32 in1026.8 mb 0.00 in0.0 mm 0.00 in0.0 mm 0.00 in0.0 mm
05:27 PM 70.7°F21.5°C 47.5°F8.6°C 44% 1.3 mph NE2.1 kmh NE 3.1 mph5.0 kmh 30.32 in1026.8 mb 0.00 in0.0 mm 0.00 in0.0 mm 0.00 in0.0 mm
05:47 PM 69.8°F21.0°C 47.1°F8.4°C 45% 1.3 mph NE2.1 kmh NE 4.3 mph6.9 kmh 30.32 in1026.8 mb 0.00 in0.0 mm 0.00 in0.0 mm 0.00 in0.0 mm
06:07 PM 69.1°F20.6°C 46.4°F8.0°C 45% 1.3 mph N2.1 kmh N 4.3 mph6.9 kmh 30.32 in1026.8 mb 0.00 in0.0 mm 0.00 in0.0 mm 0.00 in0.0 mm
06:18 PM 68.7°F20.4°C 46.0°F7.8°C 45% 1.3 mph NE2.1 kmh NE 3.8 mph6.1 kmh 30.32 in1026.8 mb 0.00 in0.0 mm 0.00 in0.0 mm 0.00 in0.0 mm
06:47 PM 67.6°F19.8°C 45.5°F7.5°C 46% 0.7 mph NE1.1 kmh NE 3.8 mph6.1 kmh 30.32 in1026.8 mb 0.00 in0.0 mm 0.00 in0.0 mm 0.00 in0.0 mm
07:08 PM 66.7°F19.3°C 44.6°F7.0°C 46% 1.3 mph E2.1 kmh E 2.5 mph4.0 kmh 30.32 in1026.8 mb 0.00 in0.0 mm 0.00 in0.0 mm 0.00 in0.0 mm
07:28 PM 65.8°F18.8°C 44.2°F6.8°C 47% Calm Calm 1.3 mph2.1 kmh 30.32 in1026.8 mb 0.00 in0.0 mm 0.00 in0.0 mm 0.00 in0.0 mm
07:48 PM 64.6°F18.1°C 43.5°F6.4°C 48% 0.7 mph E1.1 kmh E 1.8 mph2.9 kmh 30.32 in1026.8 mb 0.00 in0.0 mm 0.00 in0.0 mm 0.00 in0.0 mm
08:09 PM 63.1°F17.3°C 42.6°F5.9°C 49% 0.7 mph E1.1 kmh E 1.3 mph2.1 kmh 30.33 in1027.1 mb 0.00 in0.0 mm 0.00 in0.0 mm 0.00 in0.0 mm
08:19 PM 62.2°F16.8°C 42.1°F5.6°C 50% Calm Calm 1.3 mph2.1 kmh 30.34 in1027.4 mb 0.00 in0.0 mm 0.00 in0.0 mm 0.00 in0.0 mm
08:49 PM 60.4°F15.8°C 41.4°F5.2°C 52% 0.7 mph NE1.1 kmh NE 3.1 mph5.0 kmh 30.33 in1027.1 mb 0.00 in0.0 mm 0.00 in0.0 mm 0.00 in0.0 mm
08:59 PM 60.3°F15.7°C 41.2°F5.1°C 52% 0.7 mph NNE1.1 kmh NNE 2.5 mph4.0 kmh 30.33 in1027.1 mb 0.00 in0.0 mm 0.00 in0.0 mm 0.00 in0.0 mm
09:20 PM 59.9°F15.5°C 41.2°F5.1°C 53% 0.7 mph NNE1.1 kmh NNE 3.1 mph5.0 kmh 30.33 in1027.1 mb 0.00 in0.0 mm 0.00 in0.0 mm 0.00 in0.0 mm
09:39 PM 59.5°F15.3°C 41.2°F5.1°C 54% 1.3 mph NNE2.1 kmh NNE 3.1 mph5.0 kmh 30.34 in1027.4 mb 0.00 in0.0 mm 0.00 in0.0 mm 0.00 in0.0 mm
10:00 PM 59.4°F15.2°C 41.5°F5.3°C 55% 0.7 mph NE1.1 kmh NE 3.1 mph5.0 kmh 30.34 in1027.4 mb 0.00 in0.0 mm 0.00 in0.0 mm 0.00 in0.0 mm
10:19 PM 59.0°F15.0°C 41.2°F5.1°C 55% 1.3 mph NE2.1 kmh NE 3.8 mph6.1 kmh 30.35 in1027.8 mb 0.00 in0.0 mm 0.00 in0.0 mm 0.00 in0.0 mm
10:40 PM 58.3°F14.6°C 40.8°F4.9°C 56% 0.7 mph NE1.1 kmh NE 2.5 mph4.0 kmh 30.34 in1027.4 mb 0.00 in0.0 mm 0.00 in0.0 mm 0.00 in0.0 mm
11:00 PM 57.6°F14.2°C 40.6°F4.8°C 57% 1.3 mph NE2.1 kmh NE 2.5 mph4.0 kmh 30.35 in1027.8 mb 0.00 in0.0 mm 0.00 in0.0 mm 0.00 in0.0 mm
11:20 PM 56.8°F13.8°C 39.9°F4.4°C 57% 0.7 mph E1.1 kmh E 3.1 mph5.0 kmh 30.35 in1027.8 mb 0.00 in0.0 mm 0.00 in0.0 mm 0.00 in0.0 mm
11:41 PM 56.3°F13.5°C 39.9°F4.4°C 58% 1.3 mph ENE2.1 kmh ENE 2.5 mph4.0 kmh 30.34 in1027.4 mb 0.00 in0.0 mm 0.00 in0.0 mm 0.00 in0.0 mm